Time;durP1;ratioP1;P1;durP2;ratioP2;P2;SDS_P1;SDS_P2;PMS_P1;PMS_P2;Temp;Humidity;BMP_temperature;BMP_pressure;BME280_temperature;BME280_humidity;BME280_pressure;Samples;Min_cycle;Max_cycle;Signal;HPM_P1;HPM_P2
2023/04/08 00:01:12;;;;;;;10.10;7.20;;;;;;;;;;5092337;28;20449;-78
2023/04/08 00:03:38;;;;;;;11.52;7.90;;;;;;;;;;5076041;28;20405;-78
2023/04/08 00:06:04;;;;;;;11.05;7.90;;;;;;;;;;5042505;28;20397;-77
2023/04/08 00:08:30;;;;;;;10.88;7.80;;;;;;;;;;5075662;28;20490;-78
2023/04/08 00:10:57;;;;;;;11.18;7.55;;;;;;;;;;5092328;28;20770;-79
2023/04/08 00:13:23;;;;;;;11.20;7.68;;;;;;;;;;5075383;28;20406;-78
2023/04/08 00:15:49;;;;;;;10.43;7.72;;;;;;;;;;5042752;28;20390;-79
2023/04/08 00:18:16;;;;;;;12.25;7.97;;;;;;;;;;5092249;28;20393;-79
2023/04/08 00:20:43;;;;;;;11.00;7.97;;;;;;;;;;5092048;28;20402;-78
2023/04/08 00:23:09;;;;;;;12.63;8.07;;;;;;;;;;5071629;28;20698;-78
2023/04/08 00:25:35;;;;;;;11.20;8.23;;;;;;;;;;5071966;28;20439;-78
2023/04/08 00:28:01;;;;;;;12.45;8.23;;;;;;;;;;5055155;28;20408;-78
2023/04/08 00:30:27;;;;;;;11.82;8.27;;;;;;;;;;5071871;28;20419;-78
2023/04/08 00:32:54;;;;;;;11.45;7.90;;;;;;;;;;5071578;28;20396;-78
2023/04/08 00:35:20;;;;;;;12.70;8.40;;;;;;;;;;5038627;28;20783;-79
2023/04/08 00:37:46;;;;;;;11.85;8.38;;;;;;;;;;5054883;28;20410;-79
2023/04/08 00:40:13;;;;;;;12.88;8.50;;;;;;;;;;5055193;28;20695;-78
2023/04/08 00:42:39;;;;;;;10.90;8.27;;;;;;;;;;5054682;28;20926;-78
2023/04/08 00:45:05;;;;;;;15.63;8.90;;;;;;;;;;5071803;28;20434;-78
2023/04/08 00:47:31;;;;;;;13.18;8.63;;;;;;;;;;5055313;28;20721;-78
2023/04/08 00:49:58;;;;;;;13.15;9.02;;;;;;;;;;5054719;28;20424;-78
2023/04/08 00:52:24;;;;;;;13.43;9.20;;;;;;;;;;5055001;28;20491;-79
2023/04/08 00:54:50;;;;;;;13.73;9.88;;;;;;;;;;5071270;28;20400;-78
2023/04/08 00:57:16;;;;;;;15.10;9.67;;;;;;;;;;5071170;28;20580;-78
2023/04/08 00:59:42;;;;;;;13.75;10.07;;;;;;;;;;5054533;28;20403;-79
2023/04/08 01:02:17;;;;;;;13.85;10.25;;;;;;;;;;5038194;28;20403;-79
2023/04/08 01:05:04;;;;;;;14.75;10.48;;;;;;;;;;5071098;28;20407;-80
2023/04/08 01:07:34;;;;;;;16.20;10.93;;;;;;;;;;5054444;28;20906;-79
2023/04/08 01:10:24;;;;;;;17.00;11.48;;;;;;;;;;5071037;28;20833;-78
2023/04/08 01:12:54;;;;;;;15.77;11.18;;;;;;;;;;5044052;28;20412;-78
2023/04/08 01:15:21;;;;;;;18.42;11.63;;;;;;;;;;5054318;28;20947;-78
2023/04/08 01:17:48;;;;;;;17.50;12.33;;;;;;;;;;5070854;28;20424;-79
2023/04/08 01:20:14;;;;;;;19.40;12.48;;;;;;;;;;5070773;28;20556;-78
2023/04/08 01:22:59;;;;;;;17.48;12.45;;;3.80;99.90;;;;;;5053981;28;20422;-79
2023/04/08 01:25:31;;;;;;;17.77;12.88;;;;;;;;;;5054059;28;20785;-78
2023/04/08 01:27:58;;;;;;;19.52;13.25;;;;;;;;;;5070764;28;20411;-78
2023/04/08 01:30:25;;;;;;;19.67;13.65;;;;;;;;;;5053949;28;20424;-79
2023/04/08 01:32:53;;;;;;;20.07;14.10;;;;;;;;;;5053412;28;20492;-79
2023/04/08 01:35:20;;;;;;;20.33;14.02;;;;;;;;;;5054102;28;20964;-79
2023/04/08 01:37:47;;;;;;;22.43;14.60;;;;;;;;;;5070878;28;20494;-79
2023/04/08 01:40:13;;;;;;;21.25;14.77;;;;;;;;;;5070821;28;20494;-79
2023/04/08 01:42:40;;;;;;;22.13;15.13;;;;;;;;;;5053982;28;20412;-78
2023/04/08 01:45:06;;;;;;;23.73;15.48;;;;;;;;;;5070551;28;20474;-78
2023/04/08 01:47:33;;;;;;;20.00;14.90;;;;;;;;;;5070414;28;20616;-77
2023/04/08 01:50:00;;;;;;;22.00;15.38;;;;;;;;;;5037242;28;20438;-78
2023/04/08 01:52:28;;;;;;;21.63;15.57;;;;;;;;;;5070445;28;20429;-78
2023/04/08 01:54:54;;;;;;;21.77;15.90;;;;;;;;;;5070677;28;20404;-78
2023/04/08 01:57:26;;;;;;;22.48;15.45;;;;;;;;;;5053720;28;20410;-79
2023/04/08 01:59:56;;;;;;;25.33;16.70;;;;;;;;;;5070371;28;20400;-78
2023/04/08 02:02:24;;;;;;;24.85;16.45;;;;;;;;;;5053633;28;20431;-79
2023/04/08 02:04:50;;;;;;;23.10;16.50;;;;;;;;;;5053856;28;20494;-79
2023/04/08 02:07:17;;;;;;;22.30;16.23;;;;;;;;;;5053612;28;20456;-79
2023/04/08 02:09:43;;;;;;;22.50;15.90;;;;;;;;;;5070160;28;20456;-79
2023/04/08 02:12:09;;;;;;;23.63;16.30;;;;;;;;;;5053618;28;20408;-79
2023/04/08 02:14:35;;;;;;;24.98;16.80;;;;;;;;;;5070868;28;20399;-79
2023/04/08 02:17:05;;;;;;;25.42;17.20;;;;;;;;;;5053563;28;20411;-79
2023/04/08 02:19:44;;;;;;;23.42;16.70;;;;;;;;;;5070145;28;20404;-79
2023/04/08 02:22:17;;;;;;;28.20;18.15;;;;;;;;;;5053745;28;20410;-78
2023/04/08 02:24:43;;;;;;;26.85;17.73;;;;;;;;;;5033814;28;20402;-79
2023/04/08 02:27:10;;;;;;;27.83;18.30;;;;;;;;;;5049956;28;20401;-79
2023/04/08 02:29:36;;;;;;;26.45;17.77;;;;;;;;;;5033611;28;20409;-78
2023/04/08 02:32:04;;;;;;;25.08;17.67;;;;;;;;;;5033511;28;20397;-79
2023/04/08 02:34:30;;;;;;;25.45;17.65;;;;;;;;;;5016929;28;20496;-78
2023/04/08 02:36:56;;;;;;;25.92;17.58;;;;;;;;;;5050097;28;20769;-79
2023/04/08 02:39:30;;;;;;;27.23;18.25;;;;;;;;;;5033301;28;20393;-79
2023/04/08 02:41:56;;;;;;;26.63;18.20;;;;;;;;;;5049783;28;20417;-79
2023/04/08 02:44:22;;;;;;;29.65;19.35;;;;;;;;;;5049951;28;20497;-79
2023/04/08 02:46:48;;;;;;;30.17;19.20;;;;;;;;;;5037186;28;20488;-83
2023/04/08 02:49:14;;;;;;;27.25;19.10;;;;;;;;;;5037855;28;20401;-83
2023/04/08 02:51:40;;;;;;;28.90;19.35;;;;;;;;;;5037599;28;20474;-83
2023/04/08 02:54:06;;;;;;;28.70;19.58;;;;;;;;;;5054475;28;20451;-82
2023/04/08 02:56:32;;;;;;;33.85;19.92;;;;;;;;;;5054082;28;20412;-81
2023/04/08 02:58:59;;;;;;;31.88;20.27;;;;;;;;;;5054160;28;20476;-83
2023/04/08 03:01:25;;;;;;;29.42;20.95;;;;;;;;;;5037979;28;20408;-83
2023/04/08 03:03:51;;;;;;;31.15;20.48;;;;;;;;;;5038057;28;20447;-83
2023/04/08 03:06:17;;;;;;;32.13;21.58;;;;;;;;;;5054416;28;20897;-83
2023/04/08 03:08:43;;;;;;;33.00;22.13;;;;;;;;;;5021233;28;20402;-83
2023/04/08 03:11:10;;;;;;;33.13;21.65;;;;;;;;;;5053817;28;20936;-83
2023/04/08 03:13:36;;;;;;;32.10;21.98;;;;;;;;;;5054169;28;20500;-83
2023/04/08 03:16:02;;;;;;;37.05;22.48;;;;;;;;;;5054051;28;20455;-83
2023/04/08 03:18:28;;;;;;;34.55;22.25;;;;;;;;;;5021337;28;20425;-82
2023/04/08 03:20:54;;;;;;;34.72;22.83;;;;;;;;;;5053546;28;20405;-81
2023/04/08 03:23:20;;;;;;;36.47;23.42;;;;;;;;;;5046156;28;20445;-83
2023/04/08 03:25:47;;;;;;;36.03;23.15;;;;;;;;;;5057635;28;20400;-83
2023/04/08 03:28:13;;;;;;;35.42;23.83;;;;;;;;;;5040593;28;20461;-83
2023/04/08 03:30:39;;;;;;;40.50;23.80;;;;;;;;;;5073823;28;20452;-83
2023/04/08 03:33:06;;;;;;;37.60;23.60;;;;;;;;;;5073694;28;20521;-82
2023/04/08 03:35:33;;;;;;;41.13;25.23;;;;;;;;;;5057512;28;20482;-83
2023/04/08 03:37:59;;;;;;;39.00;24.58;;;;;;;;;;5073570;28;20482;-81
2023/04/08 03:40:25;;;;;;;38.38;25.05;;;;;;;;;;5057150;28;20887;-82
2023/04/08 03:42:52;;;;;;;41.87;25.47;;;;;;;;;;5057785;28;20426;-83
2023/04/08 03:45:18;;;;;;;41.65;25.20;;;;;;;;;;5073071;28;20403;-82
2023/04/08 03:47:44;;;;;;;40.30;24.98;;;;;;;;;;5056591;28;20405;-83
2023/04/08 03:50:10;;;;;;;41.08;25.45;;;;;;;;;;5056594;28;20463;-83
2023/04/08 03:52:36;;;;;;;42.78;25.35;;;;;;;;;;5056914;28;20395;-82
2023/04/08 03:55:02;;;;;;;41.40;25.00;;;;;;;;;;5073198;28;20435;-83
2023/04/08 03:57:28;;;;;;;42.67;25.73;;;;;;;;;;5072920;28;20404;-82
2023/04/08 03:59:54;;;;;;;40.90;24.95;;;;;;;;;;5056545;28;20413;-83
2023/04/08 04:02:20;;;;;;;42.93;24.97;;;;;;;;;;5056690;28;20403;-82
2023/04/08 04:04:46;;;;;;;42.13;25.15;;;;;;;;;;5056114;28;20404;-82
2023/04/08 04:07:12;;;;;;;44.05;25.67;;;;;;;;;;5073090;28;20407;-82
2023/04/08 04:09:38;;;;;;;40.40;26.05;;;;;;;;;;5056042;28;20473;-82
2023/04/08 04:12:04;;;;;;;46.78;26.27;;;;;;;;;;5056032;28;20407;-82
2023/04/08 04:14:30;;;;;;;44.77;26.23;;;;;;;;;;5072708;28;20404;-82
2023/04/08 04:16:57;;;;;;;43.95;26.30;;;;;;;;;;5040008;28;20404;-81
2023/04/08 04:19:23;;;;;;;45.55;26.30;;;;;;;;;;5056166;28;20400;-82
2023/04/08 04:21:49;;;;;;;43.60;25.13;;;;;;;;;;5055883;28;20404;-82
2023/04/08 04:24:15;;;;;;;44.72;26.45;;;;;;;;;;5072473;28;20780;-83
2023/04/08 04:26:41;;;;;;;49.33;28.52;;;;;;;;;;5039513;28;20427;-83
2023/04/08 04:29:07;;;;;;;53.10;28.75;;;;;;;;;;5055741;28;20406;-82
2023/04/08 04:31:33;;;;;;;48.80;27.70;;;;;;;;;;5056236;28;20424;-81
2023/04/08 04:33:59;;;;;;;45.92;27.02;;;;;;;;;;5055240;28;20396;-83
2023/04/08 04:36:26;;;;;;;51.08;28.52;;;;;;;;;;5072353;28;20449;-83
2023/04/08 04:38:52;;;;;;;49.15;27.98;;;;;;;;;;5058450;28;20937;-83
2023/04/08 04:41:18;;;;;;;48.75;27.95;;;;;;;;;;5092183;28;20400;-83
2023/04/08 04:43:44;;;;;;;51.78;28.17;;;;;;;;;;5092045;28;20407;-83
2023/04/08 04:46:10;;;;;;;47.28;27.45;;;;;;;;;;5086143;28;20415;-82
2023/04/08 04:48:36;;;;;;;48.47;28.00;;;;;;;;;;5073902;28;20407;-82
2023/04/08 04:51:03;;;;;;;50.42;28.17;;;;;;;;;;5058812;28;20436;-82
2023/04/08 04:53:29;;;;;;;50.72;28.60;;;;;;;;;;5084232;28;20400;-82
2023/04/08 04:55:55;;;;;;;51.45;28.73;;;;;;;;;;5070635;28;20408;-82
2023/04/08 04:58:21;;;;;;;48.85;28.23;;;;;;;;;;5070051;28;20400;-81
2023/04/08 05:00:47;;;;;;;49.22;27.63;;;;;;;;;;5040586;28;20487;-83
2023/04/08 05:03:13;;;;;;;47.42;26.42;;;;;;;;;;5074144;28;20414;-83
2023/04/08 05:05:40;;;;;;;49.20;27.75;;;;;;;;;;5058153;28;20408;-83
2023/04/08 05:08:08;;;;;;;53.60;29.23;;;;;;;;;;5075315;28;20414;-83
2023/04/08 05:10:35;;;;;;;51.03;29.83;;;;;;;;;;5076350;28;20419;-83
2023/04/08 05:13:01;;;;;;;57.47;29.80;;;;;;;;;;5073281;28;20423;-83
2023/04/08 05:15:27;;;;;;;47.85;28.50;;;;;;;;;;5058521;28;20443;-83
2023/04/08 05:17:53;;;;;;;49.80;28.15;;;;;;;;;;5074149;28;20396;-83
2023/04/08 05:20:19;;;;;;;48.63;28.35;;;;;;;;;;5072774;28;20415;-83
2023/04/08 05:22:45;;;;;;;49.05;28.15;;;;;;;;;;5072111;28;20497;-82
2023/04/08 05:25:11;;;;;;;50.70;28.70;;;;;;;;;;5074957;28;20403;-83
2023/04/08 05:27:39;;;;;;;48.13;27.92;;;;;;;;;;5058299;28;20435;-83
2023/04/08 05:30:05;;;;;;;51.17;28.60;;;;;;;;;;5057926;28;20510;-84
2023/04/08 05:32:31;;;;;;;53.77;29.20;;;;;;;;;;5057882;28;20386;-82
2023/04/08 05:34:57;;;;;;;56.17;31.15;;;;;;;;;;5058612;28;20523;-83
2023/04/08 05:37:23;;;;;;;60.53;32.08;;;;;;;;;;5074535;28;20406;-83
2023/04/08 05:39:50;;;;;;;66.93;33.63;;;;;;;;;;5075192;28;20889;-82
2023/04/08 05:42:16;;;;;;;62.50;32.72;;;;;;;;;;5058098;28;20409;-83
2023/04/08 05:44:42;;;;;;;61.22;32.08;;;;;;;;;;5058720;28;20405;-82
2023/04/08 05:47:09;;;;;;;62.70;33.93;;;;;;;;;;5078732;28;20398;-81
2023/04/08 05:49:35;;;;;;;64.57;33.70;;;;;;;;;;5058779;28;20755;-83
2023/04/08 05:52:02;;;;;;;60.85;32.63;;;;;;;;;;5059115;28;20526;-84
2023/04/08 05:54:29;;;;;;;74.18;36.65;;;;;;;;;;5059280;28;20475;-83
2023/04/08 05:56:55;;;;;;;66.80;35.53;;;;;;;;;;5076464;28;20413;-83
2023/04/08 05:59:21;;;;;;;72.00;35.72;;;;;;;;;;5076597;28;20401;-84
2023/04/08 06:01:47;;;;;;;68.38;35.67;;;;;;;;;;5076365;28;20410;-84
2023/04/08 06:04:13;;;;;;;70.30;36.67;;;;;;;;;;5059243;28;20402;-84
2023/04/08 06:06:39;;;;;;;67.25;35.22;;;;;;;;;;5075734;28;20405;-84
2023/04/08 06:09:05;;;;;;;65.38;35.47;;;;;;;;;;5059242;28;20398;-83
2023/04/08 06:11:31;;;;;;;68.03;35.40;;;;;;;;;;5060968;28;20925;-80
2023/04/08 06:13:57;;;;;;;67.75;35.47;;;;;;;;;;5076151;28;20405;-81
2023/04/08 06:16:24;;;;;;;64.87;34.43;;;;;;;;;;5075849;28;20402;-82
2023/04/08 06:18:50;;;;;;;64.97;35.08;;;;;;;;;;5059928;28;20464;-82
2023/04/08 06:21:17;;;;;;;61.75;33.42;;;;;;;;;;5063196;28;20412;-82
2023/04/08 06:23:43;;;;;;;59.80;33.33;;;;;;;;;;5076172;28;20411;-78
2023/04/08 06:26:10;;;;;;;56.97;32.47;;;;;;;;;;5076966;28;20446;-78
2023/04/08 06:28:36;;;;;;;56.20;32.72;;;;;;;;;;5080090;28;20399;-78
2023/04/08 06:31:02;;;;;;;54.07;32.27;;;;;;;;;;5076711;28;20871;-78
2023/04/08 06:33:28;;;;;;;55.38;33.38;;;;;;;;;;5075666;28;20468;-78
2023/04/08 06:36:07;;;;;;;53.88;31.83;;;;;;;;;;5058099;28;20937;-78
2023/04/08 06:38:33;;;;;;;59.85;32.97;;;;;;;;;;5074400;28;20431;-78
2023/04/08 06:41:03;;;;;;;52.13;30.77;;;;;;;;;;5057457;28;20748;-78
2023/04/08 06:43:30;;;;;;;52.83;31.23;;;;;;;;;;5073891;28;20823;-79
2023/04/08 06:45:56;;;;;;;53.10;31.30;;;;;;;;;;5073943;28;20399;-78
2023/04/08 06:48:27;;;;;;;55.17;33.42;;;;;;;;;;5073610;28;20400;-78
2023/04/08 06:50:53;;;;;;;54.92;31.70;;;;;;;;;;5073492;28;20511;-77
2023/04/08 06:53:19;;;;;;;52.47;30.57;;;;;;;;;;5040325;28;20396;-79
2023/04/08 06:55:45;;;;;;;52.20;31.65;;;;;;;;;;5057228;28;20403;-78
2023/04/08 06:58:11;;;;;;;51.60;31.07;;;;;;;;;;5057006;28;20569;-79
2023/04/08 07:00:38;;;;;;;51.45;30.75;;;;;;;;;;5056831;28;20411;-78
2023/04/08 07:03:04;;;;;;;52.78;31.20;;;;;;;;;;5073563;28;20415;-78
2023/04/08 07:05:30;;;;;;;47.85;29.90;;;;;;;;;;5056844;28;20521;-78
2023/04/08 07:07:56;;;;;;;47.80;31.20;;;;;;;;;;5040444;28;20411;-77
2023/04/08 07:10:22;;;;;;;52.08;31.73;;;;;;;;;;5056367;28;20426;-78
2023/04/08 07:12:48;;;;;;;46.13;28.70;;;;;;;;;;5072992;28;20496;-78
2023/04/08 07:15:14;;;;;;;44.20;28.07;;;;;;;;;;5073132;28;20667;-78
2023/04/08 07:17:41;;;;;;;42.58;27.88;;;;;;;;;;5072798;28;20396;-78
2023/04/08 07:20:07;;;;;;;43.07;27.07;;;;;;;;;;5073337;28;20403;-78
2023/04/08 07:22:33;;;;;;;45.05;27.90;;;;;;;;;;5057349;28;20400;-79
2023/04/08 07:24:59;;;;;;;43.08;27.45;;;;;;;;;;5059653;28;20629;-80
2023/04/08 07:27:25;;;;;;;43.38;27.80;;;;;;;;;;5076423;28;20402;-79
2023/04/08 07:29:55;;;;;;;44.38;28.67;;;;;;;;;;5076189;28;20402;-80
2023/04/08 07:32:21;;;;;;;41.92;28.50;;;;;;;;;;5059225;28;20398;-80
2023/04/08 07:34:47;;;;;;;44.00;27.92;;;;;;;;;;5059740;28;20801;-79
2023/04/08 07:37:13;;;;;;;43.58;28.23;;;;;;;;;;5076111;28;20902;-80
2023/04/08 07:39:39;;;;;;;46.95;29.08;;;;;;;;;;5059596;28;20433;-80
2023/04/08 07:42:05;;;;;;;42.53;27.73;;;;;;;;;;5076344;28;20791;-80
2023/04/08 07:44:31;;;;;;;40.53;26.27;;;;;;;;;;5076261;28;20398;-80
2023/04/08 07:46:57;;;;;;;38.95;26.17;;;;;;;;;;5076196;28;20551;-80
2023/04/08 07:49:24;;;;;;;37.13;25.35;;;;;;;;;;5059398;28;20398;-80
2023/04/08 07:51:50;;;;;;;36.22;24.38;;;;;;;;;;5059324;28;20747;-80
2023/04/08 07:54:16;;;;;;;29.10;22.08;;;;;;;;;;5059446;28;20843;-80
2023/04/08 07:56:46;;;;;;;30.27;21.33;;;;;;;;;;5059576;28;20780;-79
2023/04/08 07:59:12;;;;;;;28.58;21.13;;;;;;;;;;5058966;28;20400;-79
2023/04/08 08:01:38;;;;;;;29.30;20.30;;;;;;;;;;5075778;28;20480;-80
2023/04/08 08:04:04;;;;;;;28.38;19.42;;;;;;;;;;5092688;28;20409;-80
2023/04/08 08:06:33;;;;;;;25.05;18.67;;;;;;;;;;5076051;28;20917;-80
2023/04/08 08:08:59;;;;;;;25.10;17.95;;;;;;;;;;5075665;28;20398;-80
2023/04/08 08:11:29;;;;;;;26.17;18.60;;;;;;;;;;5075609;28;20803;-80
2023/04/08 08:13:55;;;;;;;25.57;19.00;;;;;;;;;;5059016;28;20402;-80
2023/04/08 08:16:21;;;;;;;23.63;17.85;;;;;;;;;;5075862;28;20421;-80
2023/04/08 08:18:48;;;;;;;23.60;17.77;;;;;;;;;;5059144;28;20450;-80
2023/04/08 08:21:14;;;;;;;23.25;17.52;;;;;;;;;;5058685;28;20458;-79
2023/04/08 08:23:41;;;;;;;22.50;17.50;;;;;;;;;;5075450;28;20743;-79
2023/04/08 08:26:10;;;;;;;23.58;17.20;;;;;;;;;;5058676;28;20437;-80
2023/04/08 08:28:37;;;;;;;21.25;15.85;;;;;;;;;;5075176;28;20405;-80
2023/04/08 08:31:04;;;;;;;21.77;16.38;;;;;;;;;;5075210;28;20422;-80
2023/04/08 08:33:31;;;;;;;22.80;16.48;;;;;;;;;;5058261;28;20920;-80
2023/04/08 08:35:57;;;;;;;22.47;16.13;;;;;;;;;;5059172;28;20468;-81
2023/04/08 08:38:23;;;;;;;21.67;16.80;;;;;;;;;;5058697;28;20429;-81
2023/04/08 08:40:56;;;;;;;20.08;15.90;;;;;;;;;;5058450;28;20406;-82
2023/04/08 08:43:26;;;;;;;23.33;16.90;;;;;;;;;;5074073;28;20409;-81
2023/04/08 08:45:52;;;;;;;22.02;16.30;;;;;;;;;;5075049;28;20412;-82
2023/04/08 08:48:18;;;;;;;21.25;15.57;;;;;;;;;;5075130;28;20898;-81
2023/04/08 08:50:44;;;;;;;20.73;15.47;;;;;;;;;;5058458;28;20422;-83
2023/04/08 08:53:11;;;;;;;20.90;15.85;;;;;;;;;;5074939;28;20455;-82
2023/04/08 08:55:38;;;;;;;22.20;16.05;;;;;;;;;;5075086;28;20450;-83
2023/04/08 08:58:06;;;;;;;21.02;15.32;;;;;;;;;;5074807;28;20894;-83
2023/04/08 09:00:36;;;;;;;19.58;14.90;;;;;;;;;;5074946;28;20413;-82
2023/04/08 09:03:20;;;;;;;19.48;14.52;;;8.80;99.90;;;;;;5057951;28;20402;-81
2023/04/08 09:05:53;;;;;;;20.65;15.68;;;;;;;;;;5058051;28;20406;-82
2023/04/08 09:08:26;;;;;;;19.65;14.63;;;;;;;;;;5074598;28;20936;-82
2023/04/08 09:10:53;;;;;;;18.65;13.95;;;;;;;;;;5057959;28;20414;-83
2023/04/08 09:13:19;;;;;;;18.80;14.50;;;;;;;;;;5074774;28;20700;-82
2023/04/08 09:16:11;;;;;;;18.40;14.13;;;;;;;;;;5074581;28;20401;-82
2023/04/08 09:18:38;;;;;;;18.85;14.15;;;;;;;;;;5054285;28;20761;-81
2023/04/08 09:21:05;;;;;;;18.85;14.02;;;;;;;;;;5057720;28;20402;-82
2023/04/08 09:23:38;;;;;;;18.20;14.05;;;;;;;;;;5054590;28;20408;-82
2023/04/08 09:26:09;;;;;;;17.17;13.80;;;;;;;;;;5070914;28;20403;-83
2023/04/08 09:28:35;;;;;;;16.08;12.63;;;;;;;;;;5054500;28;20415;-82
2023/04/08 09:31:02;;;;;;;17.17;13.57;;;;;;;;;;5054277;28;20454;-83
2023/04/08 09:33:31;;;;;;;17.80;13.50;;;;;;;;;;5054644;28;20417;-80
2023/04/08 09:35:57;;;;;;;19.38;14.20;;;;;;;;;;5054062;28;20400;-79
2023/04/08 09:38:23;;;;;;;17.77;13.82;;;;;;;;;;5070622;28;20430;-79
2023/04/08 09:40:50;;;;;;;18.45;14.32;;;;;;;;;;5053856;28;20965;-80
2023/04/08 09:43:19;;;;;;;20.80;15.20;;;;;;;;;;5054086;28;20411;-79
2023/04/08 09:45:46;;;;;;;18.98;14.60;;;;;;;;;;5071866;28;20403;-79
2023/04/08 09:48:17;;;;;;;19.08;13.98;;;;;;;;;;5070385;28;20415;-80
2023/04/08 09:50:48;;;;;;;19.23;13.70;;;10.00;99.90;;;;;;5070745;28;20423;-80
2023/04/08 09:53:19;;;;;;;19.80;14.45;;;;;;;;;;5070254;28;20892;-80
2023/04/08 09:55:49;;;;;;;17.52;13.63;;;;;;;;;;5053682;28;20810;-80
2023/04/08 09:58:19;;;;;;;18.08;13.55;;;9.60;99.90;;;;;;5070521;28;20449;-80
2023/04/08 10:00:49;;;;;;;18.67;14.13;;;;;;;;;;5053683;28;20917;-80
2023/04/08 10:03:27;;;;;;;19.80;14.43;;;;;;;;;;5070682;28;20404;-80
2023/04/08 10:05:55;;;;;;;18.23;14.13;;;;;;;;;;5053740;28;20482;-79
2023/04/08 10:08:21;;;;;;;19.98;14.07;;;;;;;;;;5070533;28;20483;-79
2023/04/08 10:10:48;;;;;;;18.35;13.80;;;;;;;;;;5070303;28;20419;-80
2023/04/08 10:13:14;;;;;;;19.80;14.95;;;;;;;;;;5070120;28;20403;-80
2023/04/08 10:15:42;;;;;;;18.63;13.70;;;;;;;;;;5053364;28;20433;-79
2023/04/08 10:18:12;;;;;;;20.03;14.83;;;;;;;;;;5053793;28;20470;-78
2023/04/08 10:20:38;;;;;;;17.42;14.02;;;;;;;;;;5070155;28;20411;-78
2023/04/08 10:23:06;;;;;;;18.23;13.73;;;;;;;;;;5053251;28;20469;-78
2023/04/08 10:25:32;;;;;;;18.08;13.85;;;;;;;;;;5053750;28;20403;-79
2023/04/08 10:27:59;;;;;;;19.02;13.95;;;;;;;;;;5070131;28;20934;-79
2023/04/08 10:30:30;;;;;;;18.98;13.32;;;;;;;;;;5054855;28;20488;-79
2023/04/08 10:33:00;;;;;;;17.95;13.45;;;;;;;;;;5073504;28;20465;-79
2023/04/08 10:35:30;;;;;;;18.45;14.23;;;;;;;;;;5057149;28;20752;-79
2023/04/08 10:37:57;;;;;;;17.88;13.85;;;8.70;99.90;;;;;;5072056;28;20424;-79
2023/04/08 10:40:23;;;;;;;16.90;13.38;;;;;;;;;;5070595;28;20478;-79
2023/04/08 10:42:59;;;;;;;18.35;13.57;;;;;;;;;;5037401;28;20403;-79
2023/04/08 10:45:25;;;;;;;18.67;14.18;;;;;;;;;;5072195;28;20412;-80
2023/04/08 10:47:51;;;;;;;17.30;13.33;;;;;;;;;;5074489;28;20528;-80
2023/04/08 10:50:22;;;;;;;17.42;13.75;;;;;;;;;;5076093;28;20919;-80
2023/04/08 10:52:52;;;;;;;17.50;13.00;;;;;;;;;;5070434;28;20399;-79
2023/04/08 10:55:26;;;;;;;17.07;13.27;;;9.60;99.90;;;;;;5070197;28;20965;-79
2023/04/08 10:57:52;;;;;;;17.08;13.30;;;;;;;;;;5037055;28;20486;-79
2023/04/08 11:00:30;;;;;;;17.08;13.20;;;9.30;99.90;;;;;;5053264;28;20929;-79
2023/04/08 11:03:00;;;;;;;15.02;11.52;;;;;;;;;;5069916;28;20435;-79
2023/04/08 11:05:26;;;;;;;15.30;11.68;;;;;;;;;;5070195;28;20407;-79
2023/04/08 11:07:52;;;;;;;15.27;11.85;;;;;;;;;;5057063;28;20457;-79
2023/04/08 11:10:18;;;;;;;17.30;12.90;;;;;;;;;;5073742;28;20423;-79
2023/04/08 11:12:45;;;;;;;16.55;12.40;;;;;;;;;;5056639;28;20926;-80
2023/04/08 11:15:12;;;;;;;16.08;12.35;;;10.00;99.90;;;;;;5056526;28;20399;-79
2023/04/08 11:17:39;;;;;;;16.30;12.20;;;;;;;;;;5073287;28;20404;-79
2023/04/08 11:20:06;;;;;;;15.60;11.45;;;;;;;;;;5040096;28;20913;-79
2023/04/08 11:22:33;;;;;;;15.07;10.73;;;;;;;;;;5057004;28;20396;-79
2023/04/08 11:25:00;;;;;;;14.57;11.10;;;;;;;;;;5059786;28;20394;-79
2023/04/08 11:27:26;;;;;;;14.97;10.93;;;;;;;;;;5060124;28;20441;-78
2023/04/08 11:29:55;;;;;;;15.43;11.40;;;;;;;;;;5059615;28;20881;-78
2023/04/08 11:32:22;;;;;;;14.43;11.10;;;;;;;;;;5059540;28;20390;-77
2023/04/08 11:34:48;;;;;;;14.43;10.70;;;;;;;;;;5076479;28;20398;-79
2023/04/08 11:37:14;;;;;;;14.52;10.82;;;;;;;;;;5076486;28;20409;-77
2023/04/08 11:39:42;;;;;;;15.98;11.55;;;;;;;;;;5059927;28;20394;-78
2023/04/08 11:42:08;;;;;;;16.30;11.55;;;;;;;;;;5076663;28;20421;-79
2023/04/08 11:44:34;;;;;;;14.90;11.20;;;;;;;;;;5076140;28;20402;-79
2023/04/08 11:47:01;;;;;;;14.25;11.27;;;;;;;;;;5059529;28;20451;-78
2023/04/08 11:49:27;;;;;;;15.18;12.10;;;;;;;;;;5076118;28;20410;-77
2023/04/08 11:51:58;;;;;;;17.90;12.13;;;;;;;;;;5075888;28;20422;-80
2023/04/08 11:54:28;;;;;;;15.07;11.57;;;;;;;;;;5059264;28;20455;-77
2023/04/08 11:56:54;;;;;;;17.63;12.77;;;;;;;;;;5075991;28;20480;-79
2023/04/08 11:59:21;;;;;;;16.80;12.50;;;;;;;;;;5075940;28;20955;-77
2023/04/08 12:01:47;;;;;;;18.00;13.05;;;;;;;;;;5076208;28;20451;-78
2023/04/08 12:04:13;;;;;;;18.07;12.90;;;;;;;;;;5075795;28;20410;-78
2023/04/08 12:06:42;;;;;;;20.73;13.75;;;;;;;;;;5059615;28;20398;-79
2023/04/08 12:09:08;;;;;;;19.95;14.05;;;;;;;;;;5059747;28;20412;-79
2023/04/08 12:11:34;;;;;;;18.40;13.23;;;;;;;;;;5059123;28;20422;-78
2023/04/08 12:14:00;;;;;;;18.92;14.13;;;;;;;;;;5059127;28;20397;-78
2023/04/08 12:16:26;;;;;;;18.25;13.73;;;;;;;;;;5058721;28;20405;-78
2023/04/08 12:18:52;;;;;;;20.67;14.32;;;;;;;;;;5058981;28;20869;-78
2023/04/08 12:21:19;;;;;;;20.30;14.63;;;;;;;;;;5058898;28;20441;-79
2023/04/08 12:23:45;;;;;;;20.70;14.68;;;;;;;;;;5072051;28;20568;-79
2023/04/08 12:26:12;;;;;;;18.77;13.98;;;;;;;;;;5072820;28;20991;-78
2023/04/08 12:28:38;;;;;;;21.63;14.50;;;;;;;;;;5073469;28;20407;-79
2023/04/08 12:31:04;;;;;;;19.95;14.43;;;;;;;;;;5073512;28;20443;-79
2023/04/08 12:33:31;;;;;;;19.60;13.63;;;;;;;;;;5073390;28;20465;-78
2023/04/08 12:35:58;;;;;;;18.15;14.15;;;;;;;;;;5073217;28;20400;-78
2023/04/08 12:38:25;;;;;;;18.10;12.90;;;;;;;;;;5056352;28;20521;-79
2023/04/08 12:40:51;;;;;;;21.05;14.20;;;;;;;;;;5073428;28;20491;-78
2023/04/08 12:43:17;;;;;;;20.17;13.85;;;;;;;;;;5056459;28;20415;-79
2023/04/08 12:45:43;;;;;;;20.55;14.48;;;;;;;;;;5038649;28;20400;-78
2023/04/08 12:48:09;;;;;;;20.23;14.90;;;;;;;;;;5056333;28;20903;-78
2023/04/08 12:50:36;;;;;;;18.83;14.32;;;;;;;;;;5073201;28;20419;-79
2023/04/08 12:53:02;;;;;;;21.15;14.75;;;;;;;;;;5056384;28;20412;-77
2023/04/08 12:55:28;;;;;;;20.42;14.63;;;;;;;;;;5072890;28;20400;-78
2023/04/08 12:57:54;;;;;;;22.13;15.20;;;;;;;;;;5056128;28;20411;-78
2023/04/08 13:00:20;;;;;;;21.92;15.45;;;;;;;;;;5072826;28;20480;-79
2023/04/08 13:02:46;;;;;;;25.15;17.13;;;;;;;;;;5072721;28;20902;-79
2023/04/08 13:05:12;;;;;;;24.92;16.38;;;;;;;;;;5072519;28;20898;-79
2023/04/08 13:07:38;;;;;;;25.25;16.90;;;;;;;;;;5072710;28;20409;-79
2023/04/08 13:10:05;;;;;;;28.38;18.38;;;;;;;;;;5056062;28;20771;-79
2023/04/08 13:12:32;;;;;;;25.67;16.85;;;;;;;;;;5055786;28;20407;-78
2023/04/08 13:14:59;;;;;;;31.95;18.70;;;;;;;;;;5039337;28;20482;-79
2023/04/08 13:17:25;;;;;;;29.30;18.17;;;;;;;;;;5072298;28;20494;-79
2023/04/08 13:19:51;;;;;;;26.42;18.90;;;;;;;;;;5055953;28;20406;-79
2023/04/08 13:22:17;;;;;;;25.80;18.50;;;;;;;;;;5056120;28;20979;-79
2023/04/08 13:24:43;;;;;;;25.45;17.40;;;;;;;;;;5055556;28;20419;-79
2023/04/08 13:27:09;;;;;;;25.00;17.58;;;;;;;;;;5055995;28;20748;-78
2023/04/08 13:29:35;;;;;;;27.00;17.90;;;;;;;;;;5038435;28;20449;-78
2023/04/08 13:32:02;;;;;;;28.92;18.67;;;;;;;;;;5072111;28;20427;-78
2023/04/08 13:34:28;;;;;;;27.42;17.65;;;;;;;;;;5055539;28;20404;-78
2023/04/08 13:36:54;;;;;;;28.67;19.20;;;;;;;;;;5072298;28;20476;-78
2023/04/08 13:39:20;;;;;;;25.60;16.95;;;;;;;;;;5055760;28;20400;-79
2023/04/08 13:41:47;;;;;;;26.63;17.03;;;;;;;;;;5055709;28;20755;-79
2023/04/08 13:44:14;;;;;;;25.63;16.25;;;;;;;;;;5055606;28;20818;-78
2023/04/08 13:46:41;;;;;;;23.88;17.27;;;;;;;;;;5055272;28;20406;-79
2023/04/08 13:49:08;;;;;;;22.55;16.35;;;;;;;;;;5072044;28;20411;-78
2023/04/08 13:51:34;;;;;;;23.90;16.65;;;;;;;;;;5072006;28;20749;-79
2023/04/08 13:54:00;;;;;;;22.00;16.58;;;;;;;;;;5055533;28;20395;-79
2023/04/08 13:56:26;;;;;;;23.97;16.07;;;;;;;;;;5038893;28;20402;-78
2023/04/08 13:58:52;;;;;;;25.98;17.73;;;;;;;;;;5055460;28;20399;-78
2023/04/08 14:01:18;;;;;;;26.77;17.00;;;;;;;;;;5072385;28;20760;-78
2023/04/08 14:03:45;;;;;;;28.05;18.55;;;;;;;;;;5071900;28;20407;-78
2023/04/08 14:06:11;;;;;;;34.08;18.88;;;;;;;;;;5071889;28;20487;-78
2023/04/08 14:08:37;;;;;;;25.83;18.20;;;;;;;;;;5055151;28;20412;-79
2023/04/08 14:11:03;;;;;;;24.95;17.77;;;;;;;;;;5070807;28;20489;-79
2023/04/08 14:13:29;;;;;;;25.77;17.80;;;;;;;;;;5037413;28;20407;-80
2023/04/08 14:15:57;;;;;;;25.20;17.60;;;;;;;;;;5038286;28;20405;-79